GMFO/OUD METAR and TAF weather

Enter ICAO airport designator
Station Type Date Time Source
GMFO METAR 2020/07/13 13:00 UTC NOAA

GMFO 131300Z 33013KT 310V010 9999 FEW020 29/20 Q1017 NOSIG


Station Type Date Time Source
GMFO Decoded METAR 2020/07/13 13:00 UTC NOAA

Oujda, Morocco (GMFO) 34-47N 001-56W 470M
Jul 13, 2020 - 09:00 AM EDT / 2020.07.13 1300 UTC
Wind: from the NNW (330 degrees) at 15 MPH (13 KT) (direction variable):0
Visibility: greater than 7 mile(s):0
Sky conditions: mostly clear
Temperature: 84 F (29 C)
Dew Point: 68 F (20 C)
Relative Humidity: 58%
Pressure (altimeter): 30.03 in. Hg (1017 hPa)
ob: GMFO 131300Z 33013KT 310V010 9999 FEW020 29/20 Q1017 NOSIG
cycle: 13

Station Type Date Time Source
GMFO TAF 2020/07/13 12:30 UTC NOAA

TAF TAF GMFO 131100Z 1312/1418 33012KT 9999 SCT023
TEMPO 1321/1409 20006KT

Example: see airport list